createdAt,value
2023-02-23T00:01:28.598Z,10.00
2023-02-23T00:03:58.225Z,9.90
2023-02-23T00:06:26.999Z,10.00
2023-02-23T00:08:54.918Z,10.00
2023-02-23T00:11:22.579Z,10.00
2023-02-23T00:13:50.946Z,9.90
2023-02-23T00:16:23.955Z,9.90
2023-02-23T00:19:00.486Z,10.00
2023-02-23T00:21:30.344Z,10.00
2023-02-23T00:23:59.925Z,10.10
2023-02-23T00:26:34.719Z,9.90
2023-02-23T00:29:07.937Z,9.90
2023-02-23T00:31:35.901Z,9.90
2023-02-23T00:34:04.204Z,9.90
2023-02-23T00:36:33.624Z,9.90
2023-02-23T00:39:06.446Z,9.90
2023-02-23T00:41:33.269Z,9.80
2023-02-23T00:44:01.181Z,9.80
2023-02-23T00:46:30.354Z,9.90
2023-02-23T00:48:59.151Z,10.00
2023-02-23T00:51:30.987Z,10.00
2023-02-23T00:54:00.028Z,10.00
2023-02-23T00:56:27.762Z,10.00
2023-02-23T00:58:55.436Z,10.00
2023-02-23T01:01:23.042Z,10.00
2023-02-23T01:03:50.608Z,10.00
2023-02-23T01:06:17.825Z,10.10
2023-02-23T01:08:50.271Z,10.10
2023-02-23T01:11:22.752Z,10.10
2023-02-23T01:13:53.370Z,10.10
2023-02-23T01:16:22.805Z,10.10
2023-02-23T01:18:50.029Z,9.90
2023-02-23T01:21:20.288Z,10.00
2023-02-23T01:23:47.836Z,10.00
2023-02-23T01:26:24.932Z,10.10
2023-02-23T01:28:54.405Z,10.10
2023-02-23T01:31:23.644Z,10.10
2023-02-23T01:33:58.158Z,10.10
2023-02-23T01:36:25.872Z,10.10
2023-02-23T01:38:56.953Z,10.10
2023-02-23T01:41:25.167Z,10.10
2023-02-23T01:43:56.115Z,10.10
2023-02-23T01:46:23.119Z,10.10
2023-02-23T01:48:51.733Z,10.20
2023-02-23T01:51:21.068Z,10.10
2023-02-23T01:54:11.154Z,10.10
2023-02-23T01:56:43.567Z,10.10
2023-02-23T01:59:13.612Z,10.10
2023-02-23T02:01:42.147Z,10.10
2023-02-23T02:04:16.521Z,10.10
2023-02-23T02:06:45.778Z,10.10
2023-02-23T02:09:19.667Z,10.10
2023-02-23T02:11:54.093Z,10.00
2023-02-23T02:14:31.765Z,10.00
2023-02-23T02:17:16.354Z,10.10
2023-02-23T02:19:55.393Z,10.10
2023-02-23T02:22:34.462Z,10.00
2023-02-23T02:25:32.219Z,10.10
2023-02-23T02:28:22.295Z,10.10
2023-02-23T02:31:10.566Z,10.10
2023-02-23T02:34:02.108Z,10.00
2023-02-23T02:36:50.101Z,9.90
2023-02-23T02:39:40.220Z,9.80
2023-02-23T02:42:22.661Z,9.80
2023-02-23T02:45:00.245Z,10.00
2023-02-23T02:47:29.089Z,9.90
2023-02-23T02:49:59.386Z,9.80
2023-02-23T02:52:44.976Z,9.80
2023-02-23T02:55:37.488Z,9.80
2023-02-23T02:58:08.105Z,9.80
2023-02-23T03:01:03.555Z,9.80
2023-02-23T03:03:52.484Z,9.80
2023-02-23T03:06:40.480Z,9.80
2023-02-23T03:09:44.702Z,9.90
2023-02-23T03:12:50.547Z,9.90
2023-02-23T03:16:01.971Z,9.80
2023-02-23T03:19:07.981Z,9.90
2023-02-23T03:22:15.632Z,9.90
2023-02-23T03:25:32.229Z,9.90
2023-02-23T03:28:31.884Z,9.90
2023-02-23T03:31:25.392Z,9.90
2023-02-23T03:34:37.018Z,9.80
2023-02-23T03:37:34.412Z,9.90
2023-02-23T03:40:38.025Z,9.90
2023-02-23T03:43:30.875Z,9.80
2023-02-23T03:46:17.495Z,9.80
2023-02-23T03:49:04.821Z,9.70
2023-02-23T03:51:54.950Z,9.70
2023-02-23T03:54:54.375Z,9.70
2023-02-23T03:57:43.993Z,9.80
2023-02-23T04:00:35.997Z,9.70
2023-02-23T04:03:23.760Z,9.60
2023-02-23T04:06:13.068Z,9.70
2023-02-23T04:08:59.462Z,9.70
2023-02-23T04:11:58.171Z,9.70
2023-02-23T04:14:35.322Z,9.70
2023-02-23T04:17:04.271Z,9.70
2023-02-23T04:19:31.083Z,9.60
2023-02-23T04:21:57.988Z,9.60
2023-02-23T04:24:24.857Z,9.60
2023-02-23T04:26:51.681Z,9.50
2023-02-23T04:29:18.524Z,9.50
2023-02-23T04:31:46.187Z,9.60
2023-02-23T04:34:14.386Z,9.50
2023-02-23T04:36:41.276Z,9.60
2023-02-23T04:39:08.276Z,9.60
2023-02-23T04:41:35.310Z,9.50
2023-02-23T04:44:02.303Z,9.50
2023-02-23T04:46:32.398Z,9.50
2023-02-23T04:48:59.229Z,9.60
2023-02-23T04:51:30.861Z,9.60
2023-02-23T04:53:58.286Z,9.60
2023-02-23T04:56:25.911Z,9.60
2023-02-23T04:58:53.572Z,9.50
2023-02-23T05:01:22.526Z,9.50
2023-02-23T05:03:50.499Z,9.50
2023-02-23T05:06:18.550Z,9.50
2023-02-23T05:08:45.770Z,9.50
2023-02-23T05:11:13.229Z,9.50
2023-02-23T05:13:40.260Z,9.40
2023-02-23T05:16:07.876Z,9.40
2023-02-23T05:18:35.114Z,9.40
2023-02-23T05:21:05.435Z,9.50
2023-02-23T05:23:32.738Z,9.50
2023-02-23T05:26:07.137Z,9.50
2023-02-23T05:28:35.919Z,9.50
2023-02-23T05:31:04.610Z,9.50
2023-02-23T05:33:33.561Z,9.60
2023-02-23T05:36:01.059Z,9.60
2023-02-23T05:38:28.012Z,9.80
2023-02-23T05:40:55.015Z,9.70
2023-02-23T05:43:21.884Z,9.60
2023-02-23T05:45:48.804Z,9.60
2023-02-23T05:48:15.749Z,9.60
2023-02-23T05:50:42.807Z,9.50
2023-02-23T05:53:10.444Z,9.50
2023-02-23T05:55:37.686Z,9.50
2023-02-23T05:58:04.573Z,9.50
2023-02-23T06:00:31.437Z,9.50
2023-02-23T06:02:58.401Z,9.50
2023-02-23T06:05:25.287Z,9.50
2023-02-23T06:07:54.336Z,9.50
2023-02-23T06:10:21.148Z,9.60
2023-02-23T06:12:48.091Z,9.50
2023-02-23T06:15:15.184Z,9.40
2023-02-23T06:17:42.404Z,9.40
2023-02-23T06:20:12.864Z,9.40
2023-02-23T06:22:39.778Z,9.40
2023-02-23T06:25:12.679Z,9.30
2023-02-23T06:27:40.419Z,9.30
2023-02-23T06:30:08.092Z,9.40
2023-02-23T06:32:34.937Z,9.40
2023-02-23T06:35:02.319Z,9.40
2023-02-23T06:37:29.291Z,9.40
2023-02-23T06:39:56.155Z,9.50
2023-02-23T06:42:23.012Z,9.50
2023-02-23T06:44:50.037Z,9.50
2023-02-23T06:47:17.586Z,9.40
2023-02-23T06:49:44.705Z,9.40
2023-02-23T06:52:13.694Z,9.30
2023-02-23T06:54:41.926Z,9.40
2023-02-23T06:57:09.834Z,9.40
2023-02-23T06:59:36.959Z,9.50
2023-02-23T07:02:05.851Z,9.50
2023-02-23T07:04:33.134Z,9.50
2023-02-23T07:07:00.057Z,9.50
2023-02-23T07:09:27.720Z,9.50
2023-02-23T07:11:55.854Z,9.50
2023-02-23T07:14:26.849Z,9.70
2023-02-23T07:16:54.767Z,9.70
2023-02-23T07:19:21.934Z,9.70
2023-02-23T07:21:48.791Z,9.70
2023-02-23T07:24:15.636Z,9.70
2023-02-23T07:26:46.835Z,9.70
2023-02-23T07:29:14.038Z,9.80
2023-02-23T07:31:41.290Z,9.80
2023-02-23T07:34:09.717Z,9.80
2023-02-23T07:36:37.164Z,9.70
2023-02-23T07:39:05.291Z,9.70
2023-02-23T07:41:32.729Z,9.80
2023-02-23T07:44:00.335Z,9.80
2023-02-23T07:46:27.526Z,9.80
2023-02-23T07:48:54.476Z,9.80
2023-02-23T07:51:21.736Z,9.90
2023-02-23T07:53:49.531Z,10.00
2023-02-23T07:56:16.567Z,10.10
2023-02-23T07:58:44.774Z,10.00
2023-02-23T08:01:13.212Z,10.10
2023-02-23T08:03:40.159Z,10.10
2023-02-23T08:06:07.666Z,10.10
2023-02-23T08:08:35.529Z,10.20
2023-02-23T08:11:04.066Z,10.10
2023-02-23T08:13:31.925Z,10.20
2023-02-23T08:15:59.364Z,10.10
2023-02-23T08:18:26.431Z,10.30
2023-02-23T08:20:59.438Z,10.50
2023-02-23T08:23:26.756Z,10.30
2023-02-23T08:25:54.748Z,10.30
2023-02-23T08:28:22.215Z,10.30
2023-02-23T08:30:49.144Z,10.30
2023-02-23T08:33:16.009Z,10.30
2023-02-23T08:35:42.871Z,10.40
2023-02-23T08:38:09.670Z,10.50
2023-02-23T08:40:36.630Z,10.60
2023-02-23T08:43:03.723Z,10.60
2023-02-23T08:45:30.657Z,10.80
2023-02-23T08:47:57.651Z,10.90
2023-02-23T08:50:27.216Z,10.90
2023-02-23T08:52:54.505Z,10.90
2023-02-23T08:55:21.861Z,10.90
2023-02-23T08:57:49.943Z,11.00
2023-02-23T09:00:17.673Z,11.10
2023-02-23T09:02:49.696Z,11.20
2023-02-23T09:05:17.507Z,11.20
2023-02-23T09:07:45.375Z,11.40
2023-02-23T09:10:19.852Z,11.30
2023-02-23T09:12:47.036Z,11.40
2023-02-23T09:15:14.017Z,11.50
2023-02-23T09:17:45.012Z,11.60
2023-02-23T09:20:13.685Z,11.60
2023-02-23T09:22:45.546Z,11.90
2023-02-23T09:25:13.108Z,12.10
2023-02-23T09:27:39.950Z,12.00
2023-02-23T09:30:07.418Z,12.30
2023-02-23T09:32:34.585Z,12.40
2023-02-23T09:35:01.701Z,12.40
2023-02-23T09:37:28.854Z,12.50
2023-02-23T09:39:57.927Z,12.70
2023-02-23T09:42:41.290Z,12.80
2023-02-23T09:45:27.234Z,12.70
2023-02-23T09:48:17.348Z,12.80
2023-02-23T09:50:49.346Z,12.90
2023-02-23T09:53:33.953Z,12.80
2023-02-23T09:56:03.359Z,12.70
2023-02-23T09:58:33.962Z,12.50
2023-02-23T10:01:07.052Z,12.30
2023-02-23T10:03:38.832Z,12.30
2023-02-23T10:06:11.331Z,12.40
2023-02-23T10:08:56.414Z,12.50
2023-02-23T10:11:25.782Z,12.50
2023-02-23T10:14:02.053Z,12.70
2023-02-23T10:16:53.327Z,12.50
2023-02-23T10:19:34.720Z,12.40
2023-02-23T10:22:07.469Z,12.50
2023-02-23T10:24:39.202Z,12.70
2023-02-23T10:27:25.327Z,12.60
2023-02-23T10:29:54.918Z,12.70
2023-02-23T10:32:49.429Z,12.90
2023-02-23T10:35:19.524Z,13.00
2023-02-23T10:37:47.496Z,13.10
2023-02-23T10:40:25.298Z,13.00
2023-02-23T10:42:52.729Z,12.80
2023-02-23T10:45:25.790Z,12.90
2023-02-23T10:48:00.939Z,13.00
2023-02-23T10:50:29.349Z,13.00
2023-02-23T10:53:04.690Z,13.00
2023-02-23T10:55:32.593Z,12.90
2023-02-23T10:58:10.129Z,13.00
2023-02-23T11:00:41.280Z,13.00
2023-02-23T11:03:22.731Z,13.00
2023-02-23T11:05:52.783Z,13.20
2023-02-23T11:08:21.377Z,13.20
2023-02-23T11:11:12.594Z,13.40
2023-02-23T11:13:45.548Z,13.50
2023-02-23T11:16:30.652Z,13.50
2023-02-23T11:18:59.368Z,13.60
2023-02-23T11:21:33.682Z,13.40
2023-02-23T11:24:27.884Z,13.50
2023-02-23T11:27:00.455Z,13.50
2023-02-23T11:29:35.422Z,13.40
2023-02-23T11:32:23.622Z,13.40
2023-02-23T11:35:12.484Z,13.40
2023-02-23T11:37:39.829Z,13.30
2023-02-23T11:40:22.135Z,13.50
2023-02-23T11:43:06.395Z,13.50
2023-02-23T11:45:49.068Z,13.40
2023-02-23T11:48:51.437Z,13.60
2023-02-23T11:51:25.781Z,13.60
2023-02-23T11:53:53.095Z,13.50
2023-02-23T11:56:23.871Z,13.80
2023-02-23T11:58:53.896Z,13.50
2023-02-23T12:01:46.822Z,13.60
2023-02-23T12:04:30.367Z,13.50
2023-02-23T12:07:38.854Z,13.60
2023-02-23T12:10:26.977Z,13.70
2023-02-23T12:13:25.356Z,13.60
2023-02-23T12:16:12.221Z,13.50
2023-02-23T12:18:41.952Z,13.50
2023-02-23T12:21:16.269Z,13.50
2023-02-23T12:23:48.682Z,13.30
2023-02-23T12:26:20.337Z,13.30
2023-02-23T12:28:54.772Z,13.30
2023-02-23T12:31:46.524Z,13.30
2023-02-23T12:34:19.266Z,13.20
2023-02-23T12:36:50.502Z,13.10
2023-02-23T12:39:35.829Z,13.10
2023-02-23T12:42:06.036Z,12.90
2023-02-23T12:44:58.808Z,12.90
2023-02-23T12:47:34.569Z,12.90
2023-02-23T12:50:24.287Z,12.80
2023-02-23T12:53:01.680Z,12.80
2023-02-23T12:55:41.950Z,12.80
2023-02-23T12:58:33.516Z,12.80
2023-02-23T13:01:09.504Z,12.80
2023-02-23T13:03:57.547Z,12.80
2023-02-23T13:06:30.551Z,12.70
2023-02-23T13:09:15.056Z,12.70
2023-02-23T13:11:59.899Z,12.70
2023-02-23T13:14:43.322Z,12.70
2023-02-23T13:17:36.073Z,12.70
2023-02-23T13:20:25.678Z,12.70
2023-02-23T13:22:57.745Z,12.50
2023-02-23T13:25:37.132Z,12.50
2023-02-23T13:28:06.344Z,12.50
2023-02-23T13:30:33.856Z,12.40
2023-02-23T13:33:06.367Z,12.40
2023-02-23T13:35:36.158Z,12.40
2023-02-23T13:38:32.491Z,12.40
2023-02-23T13:41:29.584Z,12.50
2023-02-23T13:44:09.393Z,12.50
2023-02-23T13:46:42.665Z,12.40
2023-02-23T13:49:38.282Z,12.50
2023-02-23T13:52:29.532Z,12.60
2023-02-23T13:55:04.006Z,12.70
2023-02-23T13:57:33.120Z,12.70
2023-02-23T14:00:00.865Z,12.80
2023-02-23T14:02:33.167Z,12.80
2023-02-23T14:05:15.727Z,12.60
2023-02-23T14:07:45.532Z,12.50
2023-02-23T14:10:21.704Z,12.50
2023-02-23T14:13:26.426Z,12.50
2023-02-23T14:16:14.837Z,12.60
2023-02-23T14:19:03.548Z,12.50
2023-02-23T14:21:31.809Z,12.60
2023-02-23T14:24:13.701Z,12.50
2023-02-23T14:26:43.701Z,12.50
2023-02-23T14:29:20.137Z,12.50
2023-02-23T14:31:58.896Z,12.40
2023-02-23T14:34:51.185Z,12.50
2023-02-23T14:37:37.205Z,12.50
2023-02-23T14:40:10.527Z,12.50
2023-02-23T14:42:39.405Z,12.40
2023-02-23T14:45:19.605Z,12.40
2023-02-23T14:47:48.687Z,12.70
2023-02-23T14:50:27.574Z,12.60
2023-02-23T14:52:56.944Z,12.40
2023-02-23T14:55:29.704Z,12.40
2023-02-23T14:57:58.189Z,12.40
2023-02-23T15:00:28.594Z,12.40
2023-02-23T15:03:12.847Z,12.40
2023-02-23T15:05:50.176Z,12.50
2023-02-23T15:08:23.245Z,12.60
2023-02-23T15:11:12.380Z,12.70
2023-02-23T15:13:50.951Z,12.70
2023-02-23T15:16:17.860Z,12.70
2023-02-23T15:18:45.166Z,12.70
2023-02-23T15:21:18.876Z,12.80
2023-02-23T15:23:49.280Z,12.80
2023-02-23T15:26:27.503Z,12.70
2023-02-23T15:28:54.283Z,12.70
2023-02-23T15:31:21.710Z,12.60
2023-02-23T15:33:51.069Z,12.70
2023-02-23T15:36:30.142Z,12.80
2023-02-23T15:38:59.866Z,12.80
2023-02-23T15:41:36.832Z,12.90
2023-02-23T15:44:13.054Z,12.90
2023-02-23T15:46:41.932Z,12.90
2023-02-23T15:49:14.369Z,12.90
2023-02-23T15:51:51.374Z,12.90
2023-02-23T15:54:27.092Z,13.00
2023-02-23T15:57:20.008Z,13.00
2023-02-23T15:59:48.987Z,12.90
2023-02-23T16:02:20.728Z,12.80
2023-02-23T16:04:54.060Z,12.90
2023-02-23T16:07:21.141Z,12.70
2023-02-23T16:09:52.576Z,12.70
2023-02-23T16:12:21.804Z,12.80
2023-02-23T16:15:14.954Z,12.70
2023-02-23T16:17:47.610Z,12.80
2023-02-23T16:20:15.029Z,12.60
2023-02-23T16:22:46.134Z,12.40
2023-02-23T16:25:16.281Z,12.50
2023-02-23T16:27:45.580Z,12.40
2023-02-23T16:30:23.516Z,12.40
2023-02-23T16:33:03.941Z,12.40
2023-02-23T16:35:41.903Z,12.30
2023-02-23T16:38:26.297Z,12.20
2023-02-23T16:40:53.734Z,12.10
2023-02-23T16:43:21.039Z,12.10
2023-02-23T16:45:48.149Z,12.00
2023-02-23T16:48:16.650Z,12.00
2023-02-23T16:50:45.661Z,12.00
2023-02-23T16:53:13.747Z,12.00
2023-02-23T16:56:12.547Z,11.90
2023-02-23T16:58:46.038Z,11.60
2023-02-23T17:01:18.680Z,11.50
2023-02-23T17:04:05.856Z,11.60
2023-02-23T17:06:32.802Z,11.50
2023-02-23T17:08:59.753Z,11.40
2023-02-23T17:11:27.193Z,11.30
2023-02-23T17:13:54.663Z,11.30
2023-02-23T17:16:22.022Z,11.30
2023-02-23T17:18:49.425Z,11.40
2023-02-23T17:21:23.098Z,11.30
2023-02-23T17:23:51.391Z,11.20
2023-02-23T17:26:21.648Z,11.30
2023-02-23T17:28:48.859Z,11.40
2023-02-23T17:31:18.077Z,11.40
2023-02-23T17:33:46.265Z,11.40
2023-02-23T17:36:16.783Z,11.40
2023-02-23T17:38:46.852Z,11.60
2023-02-23T17:41:17.537Z,11.60
2023-02-23T17:43:44.689Z,11.50
2023-02-23T17:46:12.909Z,11.50
2023-02-23T17:48:40.986Z,11.50
2023-02-23T17:51:10.214Z,11.30
2023-02-23T17:53:38.113Z,11.40
2023-02-23T17:56:05.590Z,11.40
2023-02-23T17:58:32.775Z,11.30
2023-02-23T18:01:02.474Z,11.40
2023-02-23T18:03:32.448Z,11.40
2023-02-23T18:06:08.531Z,11.40
2023-02-23T18:08:36.498Z,11.40
2023-02-23T18:11:03.851Z,11.50
2023-02-23T18:13:33.371Z,11.40
2023-02-23T18:16:03.067Z,11.30
2023-02-23T18:18:30.363Z,11.40
2023-02-23T18:20:59.734Z,11.40
2023-02-23T18:23:32.835Z,11.30
2023-02-23T18:26:08.823Z,11.10
2023-02-23T18:28:41.243Z,11.10
2023-02-23T18:31:08.351Z,11.00
2023-02-23T18:33:38.140Z,11.20
2023-02-23T18:36:18.105Z,11.10
2023-02-23T18:38:44.964Z,11.00
2023-02-23T18:41:11.876Z,11.20
2023-02-23T18:43:38.984Z,11.10
2023-02-23T18:46:08.046Z,11.20
2023-02-23T18:48:35.620Z,11.10
2023-02-23T18:51:05.778Z,11.10
2023-02-23T18:53:37.213Z,11.10
2023-02-23T18:56:27.941Z,11.10
2023-02-23T18:58:57.608Z,11.20
2023-02-23T19:01:27.831Z,11.30
2023-02-23T19:03:57.629Z,11.10
2023-02-23T19:06:25.437Z,11.10
2023-02-23T19:08:55.396Z,11.10
2023-02-23T19:11:27.395Z,11.10
2023-02-23T19:14:00.794Z,11.10
2023-02-23T19:16:31.173Z,11.10
2023-02-23T19:18:59.837Z,10.90
2023-02-23T19:21:26.691Z,10.90
2023-02-23T19:23:57.848Z,10.90
2023-02-23T19:26:25.652Z,11.00
2023-02-23T19:28:52.950Z,11.00
2023-02-23T19:31:22.439Z,11.10
2023-02-23T19:33:50.681Z,11.00
2023-02-23T19:36:20.614Z,10.90
2023-02-23T19:38:48.892Z,10.80
2023-02-23T19:41:19.454Z,10.90
2023-02-23T19:43:46.899Z,10.80
2023-02-23T19:46:17.281Z,10.70
2023-02-23T19:48:48.981Z,10.70
2023-02-23T19:51:15.939Z,10.60
2023-02-23T19:53:42.930Z,10.70
2023-02-23T19:56:16.723Z,10.50
2023-02-23T19:58:46.560Z,10.60
2023-02-23T20:01:19.412Z,10.60
2023-02-23T20:03:55.314Z,10.70
2023-02-23T20:06:25.335Z,10.60
2023-02-23T20:08:55.063Z,10.60
2023-02-23T20:11:23.360Z,10.40
2023-02-23T20:13:53.731Z,10.40
2023-02-23T20:16:21.246Z,10.50
2023-02-23T20:18:48.328Z,10.50
2023-02-23T20:21:18.089Z,10.50
2023-02-23T20:23:46.741Z,10.50
2023-02-23T20:26:19.729Z,10.60
2023-02-23T20:28:46.876Z,10.50
2023-02-23T20:31:30.706Z,10.40
2023-02-23T20:34:01.048Z,10.20
2023-02-23T20:36:28.140Z,10.30
2023-02-23T20:38:55.346Z,10.30
2023-02-23T20:41:22.924Z,10.30
2023-02-23T20:43:51.684Z,10.20
2023-02-23T20:46:19.904Z,10.10
2023-02-23T20:48:49.152Z,10.10
2023-02-23T20:51:19.296Z,10.00
2023-02-23T20:53:48.309Z,9.90
2023-02-23T20:56:17.471Z,9.90
2023-02-23T20:58:45.152Z,9.90
2023-02-23T21:01:16.894Z,9.90
2023-02-23T21:03:44.530Z,9.90
2023-02-23T21:06:11.609Z,9.90
2023-02-23T21:08:39.918Z,9.80
2023-02-23T21:11:08.800Z,9.90
2023-02-23T21:13:36.165Z,9.90
2023-02-23T21:16:03.418Z,9.80
2023-02-23T21:18:31.448Z,9.90
2023-02-23T21:21:09.959Z,9.70
2023-02-23T21:23:39.074Z,9.80
2023-02-23T21:26:16.136Z,9.80
2023-02-23T21:28:44.918Z,9.90
2023-02-23T21:31:13.566Z,9.80
2023-02-23T21:33:42.823Z,9.70
2023-02-23T21:36:11.286Z,9.80
2023-02-23T21:38:39.276Z,9.90
2023-02-23T21:41:07.094Z,9.90
2023-02-23T21:43:36.052Z,9.80
2023-02-23T21:46:09.828Z,9.60
2023-02-23T21:48:37.069Z,9.70
2023-02-23T21:51:07.353Z,9.80
2023-02-23T21:53:34.802Z,9.80
2023-02-23T21:56:12.966Z,10.00
2023-02-23T21:58:43.484Z,10.00
2023-02-23T22:01:19.762Z,10.00
2023-02-23T22:03:47.697Z,9.70
2023-02-23T22:06:18.227Z,9.70
2023-02-23T22:08:50.062Z,9.80
2023-02-23T22:11:24.683Z,9.80
2023-02-23T22:14:00.395Z,9.80
2023-02-23T22:16:33.686Z,9.70
2023-02-23T22:19:04.540Z,9.80
2023-02-23T22:21:37.321Z,9.70
2023-02-23T22:24:05.607Z,9.80
2023-02-23T22:26:37.709Z,9.80
2023-02-23T22:29:06.043Z,9.70
2023-02-23T22:31:33.286Z,9.60
2023-02-23T22:34:00.361Z,9.60
2023-02-23T22:36:27.220Z,9.70
2023-02-23T22:38:58.275Z,9.70
2023-02-23T22:41:29.449Z,9.60
2023-02-23T22:43:57.742Z,9.50
2023-02-23T22:46:25.928Z,9.30
2023-02-23T22:48:53.065Z,9.30
2023-02-23T22:51:20.672Z,9.30
2023-02-23T22:53:47.750Z,9.30
2023-02-23T22:56:14.894Z,9.20
2023-02-23T22:58:42.489Z,9.20
2023-02-23T23:01:12.040Z,9.30
2023-02-23T23:03:47.146Z,9.30
2023-02-23T23:06:17.526Z,9.30
2023-02-23T23:08:45.923Z,9.30
2023-02-23T23:11:18.922Z,9.40
2023-02-23T23:13:48.672Z,9.40
2023-02-23T23:16:32.067Z,9.30
2023-02-23T23:19:12.773Z,9.20
2023-02-23T23:21:41.697Z,9.30
2023-02-23T23:24:09.963Z,9.30
2023-02-23T23:26:40.909Z,9.30
2023-02-23T23:29:11.742Z,9.30
2023-02-23T23:31:40.548Z,9.30
2023-02-23T23:34:10.411Z,9.20
2023-02-23T23:36:46.244Z,9.20
2023-02-23T23:39:16.472Z,9.20
2023-02-23T23:41:48.001Z,9.20
2023-02-23T23:44:21.505Z,9.20
2023-02-23T23:46:53.032Z,9.20
2023-02-23T23:49:22.427Z,9.10
2023-02-23T23:51:52.061Z,9.10
2023-02-23T23:54:23.057Z,9.10
2023-02-23T23:56:50.991Z,9.10
2023-02-23T23:59:20.587Z,9.10
